Pelagos — SZSW — position and weather

sailwx.info

Track history (hours):
 
Tides and Currents Weather Stations Pressure Air Temp Water Temp Dewpoint Dewpoint Depression Visibility Wind Speed Wind Dir Waves Ship Positions

Pelagos

Last reported at 2016-Dec-10 19:19 UTC. Time now 2016-Dec-11 08:09 UTC.
Position N 53°23' E 003°40'.

Length 249 m; draft 8 m.

Type: Ship. MMSI: 240335000.

Date/timePositionNaut miles runAvg speedWind from/ knotsBaromVisibWave heightAir tempDewpointWater temp
2016-Dec-10 19:19N 53°23' E 003°40'111 8.5
2016-Dec-10 06:15N 51°41' E 002°29'5 7.9
2016-Dec-10 05:33N 51°37' E 002°24'8 7.5
2016-Dec-10 04:31N 51°31' E 002°16'7 7.3
2016-Dec-10 03:33N 51°25' E 002°09'7 7.3
2016-Dec-10 02:34N 51°18' E 002°06'7 7.3
2016-Dec-10 01:34N 51°12' E 001°59'8 8.2
2016-Dec-10 00:34N 51°08' E 001°48'9 8.7
2016-Dec-09 23:33N 51°01' E 001°39'9 9.5
2016-Dec-09 22:33N 50°54' E 001°29'10 9.9
2016-Dec-09 21:33N 50°45' E 001°24'10 9.5
2016-Dec-09 20:31N 50°37' E 001°14'40 9.6
2016-Dec-09 16:21N 50°21' E 000°16'810.6
2016-Dec-09 15:33N 50°19' E 000°03'1010.2
2016-Dec-09 14:33N 50°15' W 000°11'10 9.8
2016-Dec-09 13:33N 50°10' W 000°25'9 9.2
2016-Dec-09 12:33N 50°06' W 000°37'17 8.5
2016-Dec-09 10:33N 49°52' W 000°52'9 8.9
2016-Dec-09 09:33N 49°43' W 000°47'10 9.8
2016-Dec-09 08:34N 49°37' W 000°36'10 9.9
2016-Dec-09 07:34N 49°34' W 000°22'9 9.3
2016-Dec-09 06:34N 49°32' W 000°08'1111.3
2016-Dec-09 05:34N 49°28' E 000°09'0 0.2
2016-Dec-09 04:32N 49°28' E 000°09'0 0.0
2016-Dec-09 03:32N 49°28' E 000°09'0 0.0
2016-Dec-09 02:32N 49°28' E 000°09'0 0.0
2016-Dec-09 01:32N 49°28' E 000°09'0 0.0
2016-Dec-09 00:32N 49°28' E 000°09'0 0.0
2016-Dec-08 23:32N 49°28' E 000°09'0 0.0
2016-Dec-08 22:32N 49°28' E 000°09'0 0.0
2016-Dec-08 21:32N 49°28' E 000°09'0 0.0
2016-Dec-08 20:32N 49°28' E 000°09'0 0.0
2016-Dec-08 19:32N 49°28' E 000°09'0 0.0
2016-Dec-08 18:32N 49°28' E 000°09'0 0.0
2016-Dec-08 17:32N 49°28' E 000°09'0 0.0
2016-Dec-08 16:32N 49°28' E 000°09'0 0.0
2016-Dec-08 15:32N 49°28' E 000°09'0 0.0
2016-Dec-08 14:32N 49°28' E 000°09'0 0.0
2016-Dec-08 13:32N 49°28' E 000°09'0 0.0
2016-Dec-08 12:32N 49°28' E 000°09'0 0.0
2016-Dec-08 11:32N 49°28' E 000°09'0 0.0
2016-Dec-08 10:32N 49°28' E 000°09'0 0.0
2016-Dec-08 09:32N 49°28' E 000°09'0 0.0
2016-Dec-08 08:32N 49°28' E 000°09'0 0.0
2016-Dec-08 07:32N 49°28' E 000°09'0 0.0
2016-Dec-08 06:29N 49°28' E 000°09'0 0.0
2016-Dec-08 05:32N 49°28' E 000°09'0 0.0
2016-Dec-08 04:32N 49°28' E 000°09'0 0.0
2016-Dec-08 03:29N 49°28' E 000°09'0 0.0
2016-Dec-08 02:34N 49°28' E 000°09'3 3.0
2016-Dec-08 01:34N 49°29' E 000°05'1010.2
2016-Dec-08 00:34N 49°32' W 000°10'4 3.8
2016-Dec-07 23:31N 49°35' W 000°14'0 0.2
2016-Dec-07 22:31N 49°35' W 000°15'0 0.1
2016-Dec-07 21:31N 49°35' W 000°15'0 0.0
2016-Dec-07 20:31N 49°35' W 000°15'0 0.0
2016-Dec-07 19:31N 49°35' W 000°15'0 0.1
2016-Dec-07 18:31N 49°35' W 000°15'0 0.1
2016-Dec-07 17:31N 49°35' W 000°15'0 0.1
2016-Dec-07 16:31N 49°35' W 000°14'0 0.0
2016-Dec-07 15:31N 49°35' W 000°14'0 0.0
2016-Dec-07 14:31N 49°35' W 000°14'0 0.0
2016-Dec-07 13:31N 49°35' W 000°14'0 0.0
2016-Dec-07 12:31N 49°35' W 000°14'0 0.0
2016-Dec-07 11:31N 49°35' W 000°14'0 0.2
2016-Dec-07 10:31N 49°35' W 000°15'0 0.2
2016-Dec-07 09:31N 49°35' W 000°15'0 0.0
2016-Dec-07 08:31N 49°35' W 000°15'0 0.0
2016-Dec-07 07:31N 49°35' W 000°15'0 0.1
2016-Dec-07 06:31N 49°35' W 000°15'0 0.0
2016-Dec-07 05:31N 49°35' W 000°15'0 0.1
2016-Dec-07 04:31N 49°35' W 000°15'0 0.1
2016-Dec-07 03:31N 49°35' W 000°14'0 0.0
2016-Dec-07 02:31N 49°35' W 000°14'0 0.0
2016-Dec-07 01:31N 49°35' W 000°14'0 0.0
2016-Dec-07 00:31N 49°35' W 000°14'0 0.0
2016-Dec-06 23:31N 49°35' W 000°14'0 0.2
2016-Dec-06 22:31N 49°35' W 000°15'0 0.2
2016-Dec-06 21:31N 49°35' W 000°15'0 0.0
2016-Dec-06 20:31N 49°35' W 000°15'0 0.0
2016-Dec-06 18:31N 49°35' W 000°15'0 0.0
2016-Dec-06 17:28N 49°35' W 000°15'0 0.0
2016-Dec-06 16:31N 49°35' W 000°15'0 0.1
2016-Dec-06 15:28N 49°35' W 000°15'0 0.1
2016-Dec-06 14:31N 49°35' W 000°14'0 0.0
2016-Dec-06 13:31N 49°35' W 000°14'0 0.0
2016-Dec-06 12:31N 49°35' W 000°14'0 0.0
2016-Dec-06 11:31N 49°35' W 000°14'0 0.2
2016-Dec-06 10:31N 49°35' W 000°15'0 0.1
2016-Dec-06 09:31N 49°35' W 000°15'5 5.1
2016-Dec-06 08:33N 49°35' W 000°22'1111.3
2016-Dec-06 07:33N 49°41' W 000°38'10 9.7
2016-Dec-06 06:33N 49°46' W 000°50'1111.1
2016-Dec-06 05:33N 49°57' W 000°56'1211.6
2016-Dec-06 04:33N 50°08' W 001°01'1110.9
2016-Dec-06 03:32N 50°19' W 000°57'2412.1
2016-Dec-06 01:32N 50°25' W 000°20'1111.2
2016-Dec-06 00:33N 50°28' W 000°04'1111.0
2016-Dec-05 23:33N 50°32' E 000°13'3812.3
2016-Dec-05 20:26N 50°51' E 001°06'1213.4
2016-Dec-05 19:33N 50°59' E 001°19'1212.4
2016-Dec-05 18:33N 51°07' E 001°34'1111.0
2016-Dec-05 17:33N 51°15' E 001°46'1110.8
2016-Dec-05 16:33N 51°25' E 001°54'1111.3
2016-Dec-05 15:33N 51°33' E 002°05'1211.9
2016-Dec-05 14:33N 51°42' E 002°18'1312.8
2016-Dec-05 13:33N 51°52' E 002°31'1713.2
2016-Dec-05 12:16N 52°09' E 002°37'2713.5
2016-Dec-05 10:14N 52°33' E 002°57'912.6
2016-Dec-05 09:32N 52°41' E 003°03'8111.6
2016-Dec-05 02:33N 53°54' E 004°04'4912.3
2016-Dec-04 22:33N 54°33' E 004°54'  
Track history (hours):
 
Tides and Currents Weather Stations Pressure Air Temp Water Temp Dewpoint Dewpoint Depression Visibility Wind Speed Wind Dir Waves Ship Positions

Pelagos

Last reported at 2016-Dec-10 19:19 UTC. Time now 2016-Dec-11 08:09 UTC.
Position N 53°23' E 003°40'.

Length 249 m; draft 8 m.

Type: Ship. MMSI: 240335000.

Date/timePositionNaut miles runAvg speedWind from/ knotsBaromVisibWave heightAir tempDewpointWater temp
2016-Dec-10 19:19N 53°23' E 003°40'111 8.5
2016-Dec-10 06:15N 51°41' E 002°29'5 7.9
2016-Dec-10 05:33N 51°37' E 002°24'8 7.5
2016-Dec-10 04:31N 51°31' E 002°16'7 7.3
2016-Dec-10 03:33N 51°25' E 002°09'7 7.3
2016-Dec-10 02:34N 51°18' E 002°06'7 7.3
2016-Dec-10 01:34N 51°12' E 001°59'8 8.2
2016-Dec-10 00:34N 51°08' E 001°48'9 8.7
2016-Dec-09 23:33N 51°01' E 001°39'9 9.5
2016-Dec-09 22:33N 50°54' E 001°29'10 9.9
2016-Dec-09 21:33N 50°45' E 001°24'10 9.5
2016-Dec-09 20:31N 50°37' E 001°14'40 9.6
2016-Dec-09 16:21N 50°21' E 000°16'810.6
2016-Dec-09 15:33N 50°19' E 000°03'1010.2
2016-Dec-09 14:33N 50°15' W 000°11'10 9.8
2016-Dec-09 13:33N 50°10' W 000°25'9 9.2
2016-Dec-09 12:33N 50°06' W 000°37'17 8.5
2016-Dec-09 10:33N 49°52' W 000°52'9 8.9
2016-Dec-09 09:33N 49°43' W 000°47'10 9.8
2016-Dec-09 08:34N 49°37' W 000°36'10 9.9
2016-Dec-09 07:34N 49°34' W 000°22'9 9.3
2016-Dec-09 06:34N 49°32' W 000°08'1111.3
2016-Dec-09 05:34N 49°28' E 000°09'0 0.2
2016-Dec-09 04:32N 49°28' E 000°09'0 0.0
2016-Dec-09 03:32N 49°28' E 000°09'0 0.0
2016-Dec-09 02:32N 49°28' E 000°09'0 0.0
2016-Dec-09 01:32N 49°28' E 000°09'0 0.0
2016-Dec-09 00:32N 49°28' E 000°09'0 0.0
2016-Dec-08 23:32N 49°28' E 000°09'0 0.0
2016-Dec-08 22:32N 49°28' E 000°09'0 0.0
2016-Dec-08 21:32N 49°28' E 000°09'0 0.0
2016-Dec-08 20:32N 49°28' E 000°09'0 0.0
2016-Dec-08 19:32N 49°28' E 000°09'0 0.0
2016-Dec-08 18:32N 49°28' E 000°09'0 0.0
2016-Dec-08 17:32N 49°28' E 000°09'0 0.0
2016-Dec-08 16:32N 49°28' E 000°09'0 0.0
2016-Dec-08 15:32N 49°28' E 000°09'0 0.0
2016-Dec-08 14:32N 49°28' E 000°09'0 0.0
2016-Dec-08 13:32N 49°28' E 000°09'0 0.0
2016-Dec-08 12:32N 49°28' E 000°09'0 0.0
2016-Dec-08 11:32N 49°28' E 000°09'0 0.0
2016-Dec-08 10:32N 49°28' E 000°09'0 0.0
2016-Dec-08 09:32N 49°28' E 000°09'0 0.0
2016-Dec-08 08:32N 49°28' E 000°09'0 0.0
2016-Dec-08 07:32N 49°28' E 000°09'0 0.0
2016-Dec-08 06:29N 49°28' E 000°09'0 0.0
2016-Dec-08 05:32N 49°28' E 000°09'0 0.0
2016-Dec-08 04:32N 49°28' E 000°09'0 0.0
2016-Dec-08 03:29N 49°28' E 000°09'0 0.0
2016-Dec-08 02:34N 49°28' E 000°09'3 3.0
2016-Dec-08 01:34N 49°29' E 000°05'1010.2
2016-Dec-08 00:34N 49°32' W 000°10'4 3.8
2016-Dec-07 23:31N 49°35' W 000°14'0 0.2
2016-Dec-07 22:31N 49°35' W 000°15'0 0.1
2016-Dec-07 21:31N 49°35' W 000°15'0 0.0
2016-Dec-07 20:31N 49°35' W 000°15'0 0.0
2016-Dec-07 19:31N 49°35' W 000°15'0 0.1
2016-Dec-07 18:31N 49°35' W 000°15'0 0.1
2016-Dec-07 17:31N 49°35' W 000°15'0 0.1
2016-Dec-07 16:31N 49°35' W 000°14'0 0.0
2016-Dec-07 15:31N 49°35' W 000°14'0 0.0
2016-Dec-07 14:31N 49°35' W 000°14'0 0.0
2016-Dec-07 13:31N 49°35' W 000°14'0 0.0
2016-Dec-07 12:31N 49°35' W 000°14'0 0.0
2016-Dec-07 11:31N 49°35' W 000°14'0 0.2
2016-Dec-07 10:31N 49°35' W 000°15'0 0.2
2016-Dec-07 09:31N 49°35' W 000°15'0 0.0
2016-Dec-07 08:31N 49°35' W 000°15'0 0.0
2016-Dec-07 07:31N 49°35' W 000°15'0 0.1
2016-Dec-07 06:31N 49°35' W 000°15'0 0.0
2016-Dec-07 05:31N 49°35' W 000°15'0 0.1
2016-Dec-07 04:31N 49°35' W 000°15'0 0.1
2016-Dec-07 03:31N 49°35' W 000°14'0 0.0
2016-Dec-07 02:31N 49°35' W 000°14'0 0.0
2016-Dec-07 01:31N 49°35' W 000°14'0 0.0
2016-Dec-07 00:31N 49°35' W 000°14'0 0.0
2016-Dec-06 23:31N 49°35' W 000°14'0 0.2
2016-Dec-06 22:31N 49°35' W 000°15'0 0.2
2016-Dec-06 21:31N 49°35' W 000°15'0 0.0
2016-Dec-06 20:31N 49°35' W 000°15'0 0.0
2016-Dec-06 18:31N 49°35' W 000°15'0 0.0
2016-Dec-06 17:28N 49°35' W 000°15'0 0.0
2016-Dec-06 16:31N 49°35' W 000°15'0 0.1
2016-Dec-06 15:28N 49°35' W 000°15'0 0.1
2016-Dec-06 14:31N 49°35' W 000°14'0 0.0
2016-Dec-06 13:31N 49°35' W 000°14'0 0.0
2016-Dec-06 12:31N 49°35' W 000°14'0 0.0
2016-Dec-06 11:31N 49°35' W 000°14'0 0.2
2016-Dec-06 10:31N 49°35' W 000°15'0 0.1
2016-Dec-06 09:31N 49°35' W 000°15'5 5.1
2016-Dec-06 08:33N 49°35' W 000°22'1111.3
2016-Dec-06 07:33N 49°41' W 000°38'10 9.7
2016-Dec-06 06:33N 49°46' W 000°50'1111.1
2016-Dec-06 05:33N 49°57' W 000°56'1211.6
2016-Dec-06 04:33N 50°08' W 001°01'1110.9
2016-Dec-06 03:32N 50°19' W 000°57'2412.1
2016-Dec-06 01:32N 50°25' W 000°20'1111.2
2016-Dec-06 00:33N 50°28' W 000°04'1111.0
2016-Dec-05 23:33N 50°32' E 000°13'3812.3
2016-Dec-05 20:26N 50°51' E 001°06'1213.4
2016-Dec-05 19:33N 50°59' E 001°19'1212.4
2016-Dec-05 18:33N 51°07' E 001°34'1111.0
2016-Dec-05 17:33N 51°15' E 001°46'1110.8
2016-Dec-05 16:33N 51°25' E 001°54'1111.3
2016-Dec-05 15:33N 51°33' E 002°05'1211.9
2016-Dec-05 14:33N 51°42' E 002°18'1312.8
2016-Dec-05 13:33N 51°52' E 002°31'1713.2
2016-Dec-05 12:16N 52°09' E 002°37'2713.5
2016-Dec-05 10:14N 52°33' E 002°57'912.6
2016-Dec-05 09:32N 52°41' E 003°03'8111.6
2016-Dec-05 02:33N 53°54' E 004°04'4912.3
2016-Dec-04 22:33N 54°33' E 004°54'  

Dump ship's entire track history